createdAt,value
2023-04-29T00:00:42.559Z,10.40
2023-04-29T00:03:09.985Z,10.50
2023-04-29T00:05:37.272Z,10.40
2023-04-29T00:08:05.009Z,10.30
2023-04-29T00:10:32.037Z,10.40
2023-04-29T00:12:58.939Z,10.20
2023-04-29T00:15:25.800Z,10.20
2023-04-29T00:17:52.601Z,10.20
2023-04-29T00:20:19.452Z,10.20
2023-04-29T00:22:46.203Z,10.30
2023-04-29T00:25:13.187Z,10.10
2023-04-29T00:27:39.979Z,10.20
2023-04-29T00:30:08.571Z,10.30
2023-04-29T00:32:35.480Z,10.40
2023-04-29T00:35:02.420Z,10.40
2023-04-29T00:37:29.155Z,10.20
2023-04-29T00:39:55.902Z,10.10
2023-04-29T00:42:22.710Z,10.30
2023-04-29T00:44:49.404Z,10.20
2023-04-29T00:47:16.284Z,10.10
2023-04-29T00:49:43.928Z,10.10
2023-04-29T00:52:14.258Z,10.10
2023-04-29T00:54:42.001Z,10.20
2023-04-29T00:57:09.700Z,10.10
2023-04-29T00:59:37.835Z,10.10
2023-04-29T01:02:05.707Z,10.20
2023-04-29T01:04:33.054Z,10.10
2023-04-29T01:07:22.306Z,10.10
2023-04-29T01:10:14.798Z,9.80
2023-04-29T01:13:03.849Z,9.90
2023-04-29T01:15:38.351Z,10.00
2023-04-29T01:18:15.835Z,9.90
2023-04-29T01:20:44.789Z,9.70
2023-04-29T01:23:12.320Z,9.90
2023-04-29T01:25:40.782Z,9.90
2023-04-29T01:28:49.538Z,10.00
2023-04-29T01:31:25.057Z,10.00
2023-04-29T01:34:13.633Z,9.90
2023-04-29T01:36:49.219Z,9.80
2023-04-29T01:39:45.610Z,9.80
2023-04-29T01:42:25.281Z,9.80
2023-04-29T01:44:56.801Z,9.80
2023-04-29T01:47:25.413Z,9.80
2023-04-29T01:49:54.403Z,9.70
2023-04-29T01:52:23.177Z,9.50
2023-04-29T01:54:56.496Z,9.50
2023-04-29T01:57:24.530Z,9.60
2023-04-29T01:59:57.361Z,9.50
2023-04-29T02:02:47.683Z,9.60
2023-04-29T02:05:36.142Z,9.70
2023-04-29T02:08:03.362Z,9.70
2023-04-29T02:10:31.777Z,9.70
2023-04-29T02:13:12.195Z,9.60
2023-04-29T02:15:39.495Z,9.50
2023-04-29T02:18:06.289Z,9.50
2023-04-29T02:20:33.139Z,9.40
2023-04-29T02:22:59.875Z,9.50
2023-04-29T02:25:26.724Z,9.30
2023-04-29T02:27:53.538Z,9.40
2023-04-29T02:30:20.365Z,9.30
2023-04-29T02:32:47.156Z,9.50
2023-04-29T02:35:15.067Z,9.40
2023-04-29T02:37:41.769Z,9.40
2023-04-29T02:40:09.239Z,9.30
2023-04-29T02:42:35.980Z,9.20
2023-04-29T02:45:02.776Z,9.20
2023-04-29T02:47:29.988Z,9.20
2023-04-29T02:49:56.785Z,9.30
2023-04-29T02:52:23.888Z,9.30
2023-04-29T02:54:50.843Z,9.20
2023-04-29T02:57:18.430Z,9.00
2023-04-29T02:59:45.520Z,9.10
2023-04-29T03:02:13.049Z,9.10
2023-04-29T03:04:41.204Z,9.10
2023-04-29T03:07:08.094Z,9.20
2023-04-29T03:09:35.728Z,9.10
2023-04-29T03:12:02.991Z,9.20
2023-04-29T03:14:30.476Z,9.10
2023-04-29T03:16:58.723Z,9.20
2023-04-29T03:19:25.603Z,9.20
2023-04-29T03:21:53.920Z,9.20
2023-04-29T03:24:21.511Z,8.90
2023-04-29T03:26:48.250Z,9.00
2023-04-29T03:29:15.318Z,9.10
2023-04-29T03:31:42.467Z,9.20
2023-04-29T03:34:09.246Z,9.20
2023-04-29T03:36:39.333Z,9.30
2023-04-29T03:39:07.652Z,9.30
2023-04-29T03:41:34.585Z,9.30
2023-04-29T03:44:01.421Z,9.40
2023-04-29T03:46:29.784Z,9.40
2023-04-29T03:48:58.293Z,9.40
2023-04-29T03:51:25.541Z,9.30
2023-04-29T03:53:58.160Z,9.30
2023-04-29T03:56:25.845Z,9.40
2023-04-29T03:58:53.637Z,9.40
2023-04-29T04:01:22.687Z,9.40
2023-04-29T04:03:50.112Z,9.40
2023-04-29T04:06:17.024Z,9.40
2023-04-29T04:08:44.476Z,9.40
2023-04-29T04:11:15.401Z,9.40
2023-04-29T04:13:45.705Z,9.50
2023-04-29T04:16:12.996Z,9.50
2023-04-29T04:18:40.332Z,9.60
2023-04-29T04:21:12.458Z,9.60
2023-04-29T04:23:42.629Z,9.60
2023-04-29T04:26:11.865Z,9.60
2023-04-29T04:28:57.568Z,9.60
2023-04-29T04:31:39.672Z,9.50
2023-04-29T04:34:08.108Z,9.30
2023-04-29T04:36:35.509Z,9.50
2023-04-29T04:39:02.238Z,9.70
2023-04-29T04:41:31.615Z,9.70
2023-04-29T04:43:58.658Z,9.70
2023-04-29T04:46:48.864Z,9.70
2023-04-29T04:49:26.183Z,9.70
2023-04-29T04:51:54.065Z,9.70
2023-04-29T04:54:20.750Z,9.80
2023-04-29T04:56:52.274Z,9.80
2023-04-29T04:59:20.967Z,9.90
2023-04-29T05:01:47.834Z,9.90
2023-04-29T05:04:15.615Z,10.00
2023-04-29T05:06:42.407Z,9.90
2023-04-29T05:09:09.244Z,9.90
2023-04-29T05:11:36.179Z,10.00
2023-04-29T05:14:12.423Z,10.10
2023-04-29T05:16:39.768Z,10.10
2023-04-29T05:19:06.611Z,10.00
2023-04-29T05:21:37.096Z,10.10
2023-04-29T05:24:04.139Z,10.10
2023-04-29T05:26:31.080Z,10.10
2023-04-29T05:29:01.195Z,10.00
2023-04-29T05:31:32.441Z,10.20
2023-04-29T05:34:02.388Z,10.20
2023-04-29T05:36:30.024Z,10.30
2023-04-29T05:38:57.801Z,10.30
2023-04-29T05:41:25.130Z,10.30
2023-04-29T05:44:12.116Z,10.30
2023-04-29T05:46:39.493Z,10.40
2023-04-29T05:49:06.578Z,10.40
2023-04-29T05:51:33.301Z,10.50
2023-04-29T05:54:00.453Z,10.50
2023-04-29T05:56:28.713Z,10.60
2023-04-29T05:58:56.262Z,10.60
2023-04-29T06:01:23.441Z,10.60
2023-04-29T06:03:50.396Z,10.70
2023-04-29T06:06:30.015Z,10.70
2023-04-29T06:09:27.084Z,10.80
2023-04-29T06:11:57.977Z,10.90
2023-04-29T06:14:24.888Z,11.00
2023-04-29T06:16:53.699Z,11.00
2023-04-29T06:19:20.627Z,11.10
2023-04-29T06:21:48.262Z,11.10
2023-04-29T06:24:15.009Z,11.20
2023-04-29T06:26:41.707Z,11.20
2023-04-29T06:29:08.556Z,11.30
2023-04-29T06:31:36.563Z,11.40
2023-04-29T06:34:04.557Z,11.40
2023-04-29T06:36:33.048Z,11.50
2023-04-29T06:39:18.207Z,11.50
2023-04-29T06:42:08.248Z,11.60
2023-04-29T06:45:07.535Z,11.60
2023-04-29T06:47:46.650Z,11.60
2023-04-29T06:50:18.168Z,11.70
2023-04-29T06:52:45.090Z,11.70
2023-04-29T06:55:12.518Z,11.80
2023-04-29T06:57:42.498Z,11.80
2023-04-29T07:00:09.808Z,11.80
2023-04-29T07:02:39.478Z,11.90
2023-04-29T07:05:07.011Z,12.00
2023-04-29T07:07:34.391Z,12.00
2023-04-29T07:10:01.135Z,12.10
2023-04-29T07:12:27.864Z,12.10
2023-04-29T07:14:54.723Z,12.20
2023-04-29T07:17:22.115Z,12.30
2023-04-29T07:19:48.932Z,12.30
2023-04-29T07:22:15.619Z,12.30
2023-04-29T07:24:42.313Z,12.40
2023-04-29T07:27:09.052Z,12.50
2023-04-29T07:29:36.428Z,12.60
2023-04-29T07:32:04.201Z,12.60
2023-04-29T07:34:30.993Z,12.60
2023-04-29T07:36:57.722Z,12.60
2023-04-29T07:39:24.523Z,12.60
2023-04-29T07:41:55.413Z,12.60
2023-04-29T07:44:22.509Z,12.60
2023-04-29T07:46:49.370Z,12.60
2023-04-29T07:49:16.241Z,12.60
2023-04-29T07:51:43.958Z,12.60
2023-04-29T07:54:10.915Z,12.70
2023-04-29T07:56:37.723Z,12.70
2023-04-29T07:59:04.444Z,12.80
2023-04-29T08:01:31.501Z,12.80
2023-04-29T08:03:59.310Z,12.90
2023-04-29T08:06:27.446Z,12.90
2023-04-29T08:08:56.214Z,12.90
2023-04-29T08:11:24.489Z,12.90
2023-04-29T08:13:51.319Z,13.00
2023-04-29T08:16:18.563Z,13.00
2023-04-29T08:18:45.434Z,13.10
2023-04-29T08:21:12.287Z,13.10
2023-04-29T08:23:40.110Z,13.10
2023-04-29T08:26:06.859Z,13.10
2023-04-29T08:28:33.797Z,13.10
2023-04-29T08:31:00.691Z,13.20
2023-04-29T08:33:27.696Z,13.20
2023-04-29T08:36:03.549Z,13.30
2023-04-29T08:38:31.093Z,13.40
2023-04-29T08:40:58.524Z,13.40
2023-04-29T08:43:26.695Z,13.50
2023-04-29T08:45:53.923Z,13.50
2023-04-29T08:48:22.235Z,13.70
2023-04-29T08:50:49.937Z,13.70
2023-04-29T08:53:16.682Z,13.80
2023-04-29T08:55:47.826Z,13.80
2023-04-29T08:58:16.215Z,13.90
2023-04-29T09:00:44.180Z,13.90
2023-04-29T09:03:22.181Z,14.00
2023-04-29T09:05:52.910Z,14.10
2023-04-29T09:08:22.637Z,14.60
2023-04-29T09:10:50.763Z,14.90
2023-04-29T09:13:29.259Z,14.90
2023-04-29T09:15:56.351Z,14.70
2023-04-29T09:18:45.524Z,14.80
2023-04-29T09:21:21.985Z,14.70
2023-04-29T09:23:54.743Z,14.70
2023-04-29T09:26:22.621Z,15.20
2023-04-29T09:29:08.139Z,15.30
2023-04-29T09:31:35.394Z,15.20
2023-04-29T09:34:02.153Z,15.40
2023-04-29T09:36:46.907Z,15.20
2023-04-29T09:39:18.561Z,14.70
2023-04-29T09:41:54.588Z,14.50
2023-04-29T09:44:23.426Z,14.50
2023-04-29T09:46:57.954Z,14.60
2023-04-29T09:49:26.909Z,14.60
2023-04-29T09:51:59.504Z,14.60
2023-04-29T09:54:28.621Z,14.60
2023-04-29T09:56:56.862Z,14.70
2023-04-29T09:59:24.334Z,14.60
2023-04-29T10:01:53.477Z,14.60
2023-04-29T10:04:21.911Z,14.50
2023-04-29T10:06:51.086Z,14.50
2023-04-29T10:09:19.271Z,14.60
2023-04-29T10:11:48.312Z,14.60
2023-04-29T10:14:20.180Z,14.50
2023-04-29T10:16:54.500Z,14.50
2023-04-29T10:19:27.868Z,14.50
2023-04-29T10:21:58.260Z,14.60
2023-04-29T10:24:26.840Z,14.60
2023-04-29T10:26:56.166Z,14.50
2023-04-29T10:29:25.564Z,14.50
2023-04-29T10:31:53.557Z,14.40
2023-04-29T10:34:21.144Z,14.50
2023-04-29T10:36:49.448Z,14.40
2023-04-29T10:39:27.621Z,14.30
2023-04-29T10:41:56.011Z,14.30
2023-04-29T10:44:24.085Z,14.40
2023-04-29T10:47:20.352Z,14.40
2023-04-29T10:50:04.520Z,14.40
2023-04-29T10:52:31.466Z,14.50
2023-04-29T10:55:04.357Z,14.50
2023-04-29T10:57:31.396Z,14.50
2023-04-29T10:59:58.145Z,14.60
2023-04-29T11:02:26.464Z,14.70
2023-04-29T11:05:10.581Z,14.70
2023-04-29T11:07:37.446Z,14.70
2023-04-29T11:10:04.474Z,14.70
2023-04-29T11:12:31.324Z,14.70
2023-04-29T11:15:03.370Z,14.60
2023-04-29T11:17:36.436Z,14.60
2023-04-29T11:20:03.894Z,14.60
2023-04-29T11:22:32.060Z,14.60
2023-04-29T11:25:02.886Z,14.70
2023-04-29T11:27:34.731Z,14.60
2023-04-29T11:30:05.078Z,14.60
2023-04-29T11:32:37.136Z,14.60
2023-04-29T11:35:15.321Z,14.60
2023-04-29T11:37:43.654Z,14.60
2023-04-29T11:40:11.728Z,14.70
2023-04-29T11:42:44.595Z,14.70
2023-04-29T11:45:12.591Z,14.60
2023-04-29T11:47:46.477Z,14.60
2023-04-29T11:50:17.166Z,14.60
2023-04-29T11:52:46.204Z,14.50
2023-04-29T11:55:14.500Z,14.50
2023-04-29T11:57:41.761Z,14.50
2023-04-29T12:00:13.869Z,14.50
2023-04-29T12:02:46.544Z,14.30
2023-04-29T12:05:15.251Z,14.40
2023-04-29T12:07:43.360Z,14.50
2023-04-29T12:10:11.825Z,14.40
2023-04-29T12:12:41.447Z,14.40
2023-04-29T12:15:10.433Z,14.40
2023-04-29T12:17:38.114Z,14.40
2023-04-29T12:20:06.314Z,14.50
2023-04-29T12:22:33.453Z,14.50
2023-04-29T12:25:00.475Z,14.50
2023-04-29T12:27:27.435Z,14.50
2023-04-29T12:29:54.264Z,14.40
2023-04-29T12:32:25.582Z,14.50
2023-04-29T12:34:53.879Z,14.50
2023-04-29T12:37:23.311Z,14.70
2023-04-29T12:39:50.826Z,14.80
2023-04-29T12:42:17.962Z,14.90
2023-04-29T12:44:50.787Z,14.90
2023-04-29T12:47:17.819Z,15.00
2023-04-29T12:49:46.128Z,15.00
2023-04-29T12:52:13.475Z,15.00
2023-04-29T12:54:42.629Z,14.90
2023-04-29T12:57:11.020Z,14.90
2023-04-29T12:59:38.464Z,14.80
2023-04-29T13:02:05.423Z,14.80
2023-04-29T13:04:32.535Z,14.80
2023-04-29T13:07:02.611Z,14.80
2023-04-29T13:09:30.594Z,14.70
2023-04-29T13:11:59.234Z,14.60
2023-04-29T13:14:26.831Z,14.60
2023-04-29T13:16:53.945Z,14.60
2023-04-29T13:19:38.244Z,14.70
2023-04-29T13:22:07.823Z,14.70
2023-04-29T13:24:35.919Z,14.60
2023-04-29T13:27:05.979Z,14.70
2023-04-29T13:29:32.754Z,14.70
2023-04-29T13:31:59.797Z,14.90
2023-04-29T13:34:26.565Z,15.00
2023-04-29T13:36:53.540Z,15.10
2023-04-29T13:39:22.919Z,15.30
2023-04-29T13:41:50.223Z,15.30
2023-04-29T13:44:29.398Z,15.50
2023-04-29T13:47:05.643Z,15.40
2023-04-29T13:59:44.773Z,15.10
2023-04-29T14:02:25.042Z,15.00
2023-04-29T14:04:54.248Z,14.90
2023-04-29T14:07:21.459Z,14.80
2023-04-29T14:09:49.538Z,14.70
2023-04-29T14:12:16.597Z,14.70
2023-04-29T14:14:43.789Z,14.60
2023-04-29T14:17:10.617Z,14.50
2023-04-29T14:19:37.974Z,14.60
2023-04-29T14:22:04.718Z,14.50
2023-04-29T14:24:31.492Z,14.40
2023-04-29T14:26:59.018Z,14.50
2023-04-29T14:29:25.861Z,14.60
2023-04-29T14:31:53.084Z,14.60
2023-04-29T14:34:20.072Z,14.60
2023-04-29T14:36:46.940Z,14.70
2023-04-29T14:39:14.827Z,14.70
2023-04-29T14:41:41.624Z,14.70
2023-04-29T14:44:08.307Z,14.70
2023-04-29T14:46:34.998Z,14.60
2023-04-29T14:49:02.183Z,14.60
2023-04-29T14:51:29.398Z,14.60
2023-04-29T14:53:56.481Z,14.60
2023-04-29T14:56:23.528Z,14.50
2023-04-29T14:58:50.362Z,14.50
2023-04-29T15:01:17.367Z,14.50
2023-04-29T15:03:44.989Z,14.60
2023-04-29T15:06:12.684Z,14.50
2023-04-29T15:08:39.548Z,14.50
2023-04-29T15:11:06.336Z,14.40
2023-04-29T15:13:33.041Z,14.40
2023-04-29T15:16:00.203Z,14.40
2023-04-29T15:18:27.631Z,14.50
2023-04-29T15:20:54.488Z,14.50
2023-04-29T15:23:21.657Z,14.50
2023-04-29T15:25:48.504Z,14.50
2023-04-29T15:28:15.252Z,14.60
2023-04-29T15:30:42.030Z,14.60
2023-04-29T15:33:09.035Z,14.50
2023-04-29T15:35:36.562Z,14.50
2023-04-29T15:38:03.432Z,14.60
2023-04-29T15:40:30.146Z,14.70
2023-04-29T15:42:56.842Z,14.70
2023-04-29T15:45:23.796Z,14.70
2023-04-29T15:47:50.659Z,14.70
2023-04-29T15:50:17.476Z,14.70
2023-04-29T15:52:44.157Z,14.80
2023-04-29T15:55:11.903Z,14.80
2023-04-29T15:57:41.203Z,14.80
2023-04-29T16:00:08.940Z,14.70
2023-04-29T16:02:36.029Z,14.70
2023-04-29T16:05:03.453Z,14.70
2023-04-29T16:07:30.684Z,14.60
2023-04-29T16:09:57.430Z,14.50
2023-04-29T16:12:24.183Z,14.50
2023-04-29T16:14:51.142Z,14.50
2023-04-29T16:17:18.365Z,14.60
2023-04-29T16:19:45.120Z,14.50
2023-04-29T16:22:11.985Z,14.40
2023-04-29T16:24:38.766Z,14.30
2023-04-29T16:27:05.536Z,14.40
2023-04-29T16:29:32.313Z,14.40
2023-04-29T16:31:59.050Z,14.30
2023-04-29T16:34:25.875Z,14.30
2023-04-29T16:36:52.697Z,14.20
2023-04-29T16:39:19.418Z,14.20
2023-04-29T16:41:46.198Z,14.30
2023-04-29T16:44:13.498Z,14.30
2023-04-29T16:46:40.542Z,14.20
2023-04-29T16:49:07.565Z,14.20
2023-04-29T16:51:34.322Z,14.20
2023-04-29T16:54:01.204Z,14.10
2023-04-29T16:56:27.889Z,14.00
2023-04-29T16:58:54.962Z,14.00
2023-04-29T17:01:21.728Z,14.10
2023-04-29T17:03:49.014Z,13.90
2023-04-29T17:06:16.476Z,13.90
2023-04-29T17:08:44.525Z,14.00
2023-04-29T17:11:11.396Z,14.10
2023-04-29T17:13:38.515Z,14.00
2023-04-29T17:16:06.310Z,14.00
2023-04-29T17:18:33.262Z,13.90
2023-04-29T17:21:00.238Z,13.90
2023-04-29T17:23:27.476Z,13.90
2023-04-29T17:25:55.422Z,13.80
2023-04-29T17:28:22.641Z,13.90
2023-04-29T17:30:49.919Z,13.90
2023-04-29T17:33:17.517Z,13.80
2023-04-29T17:35:45.213Z,13.80
2023-04-29T17:38:12.454Z,13.80
2023-04-29T17:40:39.780Z,13.70
2023-04-29T17:43:06.455Z,13.80
2023-04-29T17:45:33.317Z,13.80
2023-04-29T17:48:00.696Z,13.60
2023-04-29T17:50:27.769Z,13.60
2023-04-29T17:52:54.611Z,13.60
2023-04-29T17:55:21.433Z,13.60
2023-04-29T17:57:48.222Z,13.60
2023-04-29T18:00:15.032Z,13.60
2023-04-29T18:02:42.259Z,13.50
2023-04-29T18:05:09.271Z,13.50
2023-04-29T18:07:36.274Z,13.40
2023-04-29T18:10:03.647Z,13.50
2023-04-29T18:12:30.481Z,13.50
2023-04-29T18:14:57.473Z,13.50
2023-04-29T18:17:24.745Z,13.50
2023-04-29T18:19:51.481Z,13.40
2023-04-29T18:22:18.280Z,13.50
2023-04-29T18:24:45.975Z,13.40
2023-04-29T18:27:13.188Z,13.40
2023-04-29T18:29:39.913Z,13.30
2023-04-29T18:32:08.178Z,13.30
2023-04-29T18:34:35.160Z,13.30
2023-04-29T18:37:02.016Z,13.30
2023-04-29T18:39:29.355Z,13.20
2023-04-29T18:41:56.153Z,13.20
2023-04-29T18:44:22.934Z,13.20
2023-04-29T18:46:49.833Z,13.30
2023-04-29T18:49:17.855Z,13.20
2023-04-29T18:51:48.451Z,13.20
2023-04-29T18:54:17.360Z,13.20
2023-04-29T18:56:48.776Z,13.30
2023-04-29T18:59:19.062Z,13.10
2023-04-29T19:01:47.188Z,13.20
2023-04-29T19:04:14.189Z,13.20
2023-04-29T19:06:41.922Z,13.20
2023-04-29T19:09:08.872Z,13.10
2023-04-29T19:11:36.167Z,13.20
2023-04-29T19:14:04.242Z,13.10
2023-04-29T19:16:30.980Z,13.20
2023-04-29T19:18:58.084Z,13.20
2023-04-29T19:21:25.178Z,13.10
2023-04-29T19:23:52.230Z,13.10
2023-04-29T19:26:19.069Z,13.00
2023-04-29T19:28:45.924Z,13.00
2023-04-29T19:31:12.753Z,12.90
2023-04-29T19:33:39.461Z,12.90
2023-04-29T19:36:06.352Z,13.00
2023-04-29T19:38:33.568Z,13.00
2023-04-29T19:41:00.363Z,13.00
2023-04-29T19:43:27.069Z,13.00
2023-04-29T19:45:53.791Z,12.90
2023-04-29T19:48:21.100Z,13.00
2023-04-29T19:50:47.945Z,13.00
2023-04-29T19:53:14.656Z,12.90
2023-04-29T19:55:41.609Z,12.90
2023-04-29T19:58:08.553Z,12.90
2023-04-29T20:00:36.321Z,12.90
2023-04-29T20:03:03.424Z,12.70
2023-04-29T20:05:30.248Z,12.80
2023-04-29T20:07:57.005Z,12.70
2023-04-29T20:10:23.812Z,12.60
2023-04-29T20:12:50.573Z,12.60
2023-04-29T20:15:17.494Z,12.60
2023-04-29T20:17:44.478Z,12.70
2023-04-29T20:20:11.492Z,12.70
2023-04-29T20:22:39.093Z,12.90
2023-04-29T20:25:06.578Z,12.60
2023-04-29T20:27:33.311Z,12.60
2023-04-29T20:30:00.941Z,12.60
2023-04-29T20:32:27.677Z,12.70
2023-04-29T20:34:55.065Z,12.60
2023-04-29T20:37:21.861Z,12.60
2023-04-29T20:39:48.866Z,12.60
2023-04-29T20:42:15.608Z,12.50
2023-04-29T20:44:42.425Z,12.50
2023-04-29T20:47:10.276Z,12.50
2023-04-29T20:49:37.697Z,12.40
2023-04-29T20:52:06.433Z,12.40
2023-04-29T20:54:33.968Z,12.30
2023-04-29T20:57:01.842Z,12.30
2023-04-29T20:59:28.793Z,12.40
2023-04-29T21:01:55.670Z,12.30
2023-04-29T21:04:23.200Z,12.20
2023-04-29T21:06:53.176Z,12.30
2023-04-29T21:09:21.355Z,12.40
2023-04-29T21:11:48.427Z,12.20
2023-04-29T21:14:15.217Z,12.20
2023-04-29T21:16:42.509Z,12.20
2023-04-29T21:19:09.256Z,12.20
2023-04-29T21:21:36.054Z,12.30
2023-04-29T21:24:03.093Z,12.20
2023-04-29T21:26:29.889Z,12.20
2023-04-29T21:28:56.924Z,12.20
2023-04-29T21:31:23.761Z,12.20
2023-04-29T21:33:51.341Z,12.10
2023-04-29T21:36:18.221Z,12.00
2023-04-29T21:38:45.039Z,12.10
2023-04-29T21:41:20.771Z,12.20
2023-04-29T21:43:48.720Z,12.20
2023-04-29T21:46:16.514Z,12.20
2023-04-29T21:48:43.666Z,12.00
2023-04-29T21:51:10.600Z,12.10
2023-04-29T21:53:38.183Z,12.00
2023-04-29T21:56:07.941Z,11.90
2023-04-29T21:58:34.632Z,12.00
2023-04-29T22:01:03.498Z,12.00
2023-04-29T22:03:30.490Z,11.90
2023-04-29T22:05:57.660Z,11.90
2023-04-29T22:08:24.485Z,12.00
2023-04-29T22:10:51.235Z,11.90
2023-04-29T22:13:18.165Z,11.90
2023-04-29T22:15:45.029Z,11.90
2023-04-29T22:18:11.930Z,11.80
2023-04-29T22:20:38.960Z,11.70
2023-04-29T22:23:05.936Z,11.60
2023-04-29T22:25:32.841Z,11.50
2023-04-29T22:27:59.682Z,11.70
2023-04-29T22:30:26.748Z,11.80
2023-04-29T22:32:54.936Z,11.70
2023-04-29T22:35:21.729Z,11.70
2023-04-29T22:37:48.897Z,11.70
2023-04-29T22:40:15.628Z,11.70
2023-04-29T22:42:43.027Z,11.60
2023-04-29T22:45:11.618Z,11.60
2023-04-29T22:47:38.588Z,11.60
2023-04-29T22:50:06.072Z,11.60
2023-04-29T22:52:32.930Z,11.50
2023-04-29T22:54:59.952Z,11.70
2023-04-29T22:57:26.689Z,11.50
2023-04-29T22:59:57.490Z,11.50
2023-04-29T23:02:27.621Z,11.50
2023-04-29T23:04:58.606Z,11.50
2023-04-29T23:07:25.807Z,11.60
2023-04-29T23:09:53.055Z,11.50
2023-04-29T23:12:20.409Z,11.50
2023-04-29T23:14:47.104Z,11.40
2023-04-29T23:17:14.442Z,11.40
2023-04-29T23:19:41.139Z,11.50
2023-04-29T23:22:08.040Z,11.50
2023-04-29T23:24:35.569Z,11.40
2023-04-29T23:27:05.637Z,11.50
2023-04-29T23:29:35.550Z,11.40
2023-04-29T23:32:02.899Z,11.40
2023-04-29T23:34:29.675Z,11.50
2023-04-29T23:36:56.396Z,11.50
2023-04-29T23:39:23.110Z,11.50
2023-04-29T23:41:49.874Z,11.40
2023-04-29T23:44:16.680Z,11.40
2023-04-29T23:46:43.448Z,11.40
2023-04-29T23:49:10.483Z,11.30
2023-04-29T23:51:37.572Z,11.40
2023-04-29T23:54:04.282Z,11.50
2023-04-29T23:56:32.955Z,11.30
2023-04-29T23:58:59.938Z,11.30
